createdAt,value
2022-09-07T00:00:15.257Z,102286.06
2022-09-07T00:02:43.124Z,102281.91
2022-09-07T00:05:10.967Z,102282.03
2022-09-07T00:07:38.793Z,102280.41
2022-09-07T00:10:06.927Z,102287.38
2022-09-07T00:12:36.046Z,102283.97
2022-09-07T00:15:08.308Z,102279.66
2022-09-07T00:17:36.104Z,102285.69
2022-09-07T00:20:04.678Z,102284.84
2022-09-07T00:22:32.499Z,102286.59
2022-09-07T00:25:00.248Z,102280.66
2022-09-07T00:27:27.979Z,102282.53
2022-09-07T00:29:57.186Z,102280.84
2022-09-07T00:32:24.918Z,102286.19
2022-09-07T00:34:52.804Z,102287.97
2022-09-07T00:37:20.554Z,102276.78
2022-09-07T00:39:49.559Z,102283.72
2022-09-07T00:42:17.495Z,102285.16
2022-09-07T00:45:10.013Z,102288.44
2022-09-07T00:47:46.423Z,102285.69
2022-09-07T00:50:16.299Z,102283.91
2022-09-07T00:52:45.650Z,102289.31
2022-09-07T00:55:15.816Z,102287.50
2022-09-07T00:57:46.631Z,102295.41
2022-09-07T01:00:14.766Z,102291.13
2022-09-07T01:02:44.208Z,102295.47
2022-09-07T01:05:16.895Z,102297.97
2022-09-07T01:07:45.030Z,102294.31
2022-09-07T01:10:12.818Z,102296.91
2022-09-07T01:12:40.528Z,102295.09
2022-09-07T01:15:08.923Z,102293.47
2022-09-07T01:17:40.813Z,102299.53
2022-09-07T01:20:26.105Z,102296.91
2022-09-07T01:23:04.190Z,102300.31
2022-09-07T01:25:37.299Z,102294.38
2022-09-07T01:28:10.908Z,102303.19
2022-09-07T01:30:39.690Z,102305.00
2022-09-07T01:33:23.030Z,102296.66
2022-09-07T01:35:56.514Z,102299.63
2022-09-07T01:38:28.516Z,102301.56
2022-09-07T01:41:03.193Z,102303.94
2022-09-07T01:43:36.196Z,102299.53
2022-09-07T01:46:05.389Z,102305.63
2022-09-07T01:48:34.835Z,102297.91
2022-09-07T01:51:03.746Z,102305.81
2022-09-07T01:53:34.118Z,102296.47
2022-09-07T01:56:04.107Z,102293.19
2022-09-07T01:58:36.274Z,102290.69
2022-09-07T02:01:06.094Z,102289.81
2022-09-07T02:03:36.202Z,102295.91
2022-09-07T02:06:08.411Z,102287.31
2022-09-07T02:08:38.762Z,102290.13
2022-09-07T02:11:10.178Z,102292.06
2022-09-07T02:13:42.093Z,102291.34
2022-09-07T02:16:13.160Z,102286.31
2022-09-07T02:18:45.935Z,102284.69
2022-09-07T02:21:15.154Z,102287.31
2022-09-07T02:23:48.094Z,102290.84
2022-09-07T02:26:18.038Z,102296.25
2022-09-07T02:28:47.187Z,102292.06
2022-09-07T02:31:15.036Z,102295.69
2022-09-07T02:33:43.043Z,102298.34
2022-09-07T02:36:13.230Z,102294.16
2022-09-07T02:38:41.014Z,102294.16
2022-09-07T02:41:23.655Z,102299.56
2022-09-07T02:43:52.783Z,102297.94
2022-09-07T02:46:24.072Z,102294.50
2022-09-07T02:48:58.503Z,102291.91
2022-09-07T02:51:33.495Z,102293.50
2022-09-07T02:54:15.491Z,102294.34
2022-09-07T02:56:52.213Z,102294.28
2022-09-07T02:59:30.535Z,102297.00
2022-09-07T03:02:03.400Z,102303.16
2022-09-07T03:04:37.934Z,102299.03
2022-09-07T03:07:08.467Z,102298.97
2022-09-07T03:09:38.561Z,102297.31
2022-09-07T03:12:07.507Z,102305.13
2022-09-07T03:14:41.238Z,102300.03
2022-09-07T03:17:09.286Z,102307.91
2022-09-07T03:19:37.207Z,102303.81
2022-09-07T03:22:05.235Z,102313.56
2022-09-07T03:24:33.083Z,102307.50
2022-09-07T03:27:00.955Z,102306.75
2022-09-07T03:29:28.755Z,102317.28
2022-09-07T03:31:57.875Z,102307.94
2022-09-07T03:34:25.618Z,102317.53
2022-09-07T03:36:53.362Z,102308.06
2022-09-07T03:39:23.896Z,102309.75
2022-09-07T03:41:51.663Z,102310.84
2022-09-07T03:44:19.417Z,102309.97
2022-09-07T03:46:47.169Z,102309.16
2022-09-07T03:49:17.499Z,102309.97
2022-09-07T03:51:45.249Z,102308.34
2022-09-07T03:54:13.001Z,102309.38
2022-09-07T03:56:40.743Z,102307.69
2022-09-07T03:59:08.565Z,102305.25
2022-09-07T04:01:36.544Z,102301.88
2022-09-07T04:04:04.384Z,102301.06
2022-09-07T04:06:33.642Z,102298.50
2022-09-07T04:09:02.599Z,102301.16
2022-09-07T04:11:31.662Z,102302.13
2022-09-07T04:13:59.424Z,102304.84
2022-09-07T04:16:27.942Z,102308.34
2022-09-07T04:18:55.997Z,102313.56
2022-09-07T04:21:24.087Z,102310.19
2022-09-07T04:23:53.838Z,102306.53
2022-09-07T04:26:22.438Z,102310.72
2022-09-07T04:28:50.262Z,102311.59
2022-09-07T04:31:19.169Z,102310.72
2022-09-07T04:33:47.883Z,102307.34
2022-09-07T04:36:16.394Z,102315.13
2022-09-07T04:38:44.164Z,102313.44
2022-09-07T04:41:14.351Z,102316.09
2022-09-07T04:43:43.401Z,102316.06
2022-09-07T04:46:13.809Z,102313.34
2022-09-07T04:48:41.618Z,102319.25
2022-09-07T04:51:11.138Z,102326.81
2022-09-07T04:53:39.243Z,102335.31
2022-09-07T04:56:07.248Z,102329.91
2022-09-07T04:58:36.517Z,102334.91
2022-09-07T05:01:04.557Z,102330.41
2022-09-07T05:03:33.189Z,102330.16
2022-09-07T05:06:01.798Z,102329.03
2022-09-07T05:08:29.949Z,102328.03
2022-09-07T05:10:57.995Z,102334.75
2022-09-07T05:13:25.876Z,102326.75
2022-09-07T05:15:54.954Z,102328.31
2022-09-07T05:18:22.693Z,102330.75
2022-09-07T05:20:50.402Z,102330.59
2022-09-07T05:23:18.148Z,102331.28
2022-09-07T05:25:46.534Z,102339.88
2022-09-07T05:28:19.120Z,102331.88
2022-09-07T05:36:25.753Z,102337.44
2022-09-07T05:38:53.670Z,102333.84
2022-09-07T05:41:22.228Z,102336.25
2022-09-07T05:46:37.809Z,102330.75
2022-09-07T05:49:08.111Z,102336.69
2022-09-07T05:51:37.092Z,102334.75
2022-09-07T05:54:04.919Z,102339.78
2022-09-07T05:56:34.735Z,102339.59
2022-09-07T05:59:02.476Z,102348.13
2022-09-07T06:01:30.207Z,102346.94
2022-09-07T06:03:58.025Z,102344.88
2022-09-07T06:06:27.164Z,102339.34
2022-09-07T06:08:57.690Z,102352.91
2022-09-07T06:11:26.696Z,102362.44
2022-09-07T06:13:54.515Z,102349.72
2022-09-07T06:16:22.850Z,102349.66
2022-09-07T06:18:51.439Z,102349.06
2022-09-07T06:21:19.991Z,102348.59
2022-09-07T06:23:49.897Z,102341.44
2022-09-07T06:26:18.266Z,102351.47
2022-09-07T06:28:49.663Z,102348.19
2022-09-07T06:31:19.270Z,102354.50
2022-09-07T06:33:47.714Z,102348.34
2022-09-07T06:36:16.381Z,102352.94
2022-09-07T06:38:47.289Z,102353.19
2022-09-07T06:44:05.421Z,102360.00
2022-09-07T06:49:20.931Z,102358.75
2022-09-07T06:51:48.690Z,102366.25
2022-09-07T06:57:09.234Z,102369.44
2022-09-07T06:59:37.894Z,102367.66
2022-09-07T07:02:06.488Z,102366.09
2022-09-07T07:04:40.168Z,102370.88
2022-09-07T07:07:10.985Z,102374.78
2022-09-07T07:09:38.946Z,102378.38
2022-09-07T07:12:08.290Z,102375.63
2022-09-07T07:14:38.668Z,102376.72
2022-09-07T07:17:10.354Z,102377.00
2022-09-07T07:19:38.066Z,102378.28
2022-09-07T07:22:18.619Z,102373.00
2022-09-07T07:24:53.742Z,102386.00
2022-09-07T07:27:22.853Z,102382.59
2022-09-07T07:29:50.723Z,102385.50
2022-09-07T07:32:21.704Z,102381.56
2022-09-07T07:34:49.464Z,102383.00
2022-09-07T07:37:17.409Z,102379.09
2022-09-07T07:42:35.626Z,102377.69
2022-09-07T07:47:52.175Z,102376.97
2022-09-07T07:50:35.258Z,102374.56
2022-09-07T07:55:54.003Z,102386.25
2022-09-07T07:58:26.905Z,102389.66
2022-09-07T08:01:01.945Z,102389.28
2022-09-07T08:03:29.830Z,102382.44
2022-09-07T08:05:57.581Z,102388.34
2022-09-07T08:08:25.623Z,102396.81
2022-09-07T08:10:56.503Z,102385.06
2022-09-07T08:13:30.617Z,102388.94
2022-09-07T08:15:59.492Z,102385.97
2022-09-07T08:18:27.330Z,102390.78
2022-09-07T08:21:00.842Z,102397.25
2022-09-07T08:23:28.727Z,102387.81
2022-09-07T08:25:58.395Z,102391.28
2022-09-07T08:28:26.794Z,102395.28
2022-09-07T08:30:55.971Z,102394.47
2022-09-07T08:33:23.580Z,102394.75
2022-09-07T08:35:58.417Z,102399.38
2022-09-07T08:38:30.106Z,102403.78
2022-09-07T08:40:58.272Z,102405.41
2022-09-07T08:43:38.108Z,102402.97
2022-09-07T08:46:14.412Z,102408.16
2022-09-07T08:48:42.140Z,102408.88
2022-09-07T08:51:12.985Z,102409.63
2022-09-07T08:53:44.735Z,102408.88
2022-09-07T08:56:15.845Z,102408.69
2022-09-07T08:58:49.266Z,102411.97
2022-09-07T09:01:35.715Z,102410.72
2022-09-07T09:04:21.275Z,102406.13
2022-09-07T09:06:54.348Z,102410.16
2022-09-07T09:09:29.502Z,102414.28
2022-09-07T09:12:03.423Z,102409.75
2022-09-07T09:14:37.968Z,102411.44
2022-09-07T09:17:10.243Z,102404.47
2022-09-07T09:19:48.547Z,102404.38
2022-09-07T09:22:18.376Z,102396.66
2022-09-07T09:24:48.031Z,102407.88
2022-09-07T09:27:15.667Z,102402.41
2022-09-07T09:29:43.304Z,102406.53
2022-09-07T09:32:29.499Z,102408.09
2022-09-07T09:35:02.987Z,102408.19
2022-09-07T09:37:37.776Z,102413.38
2022-09-07T09:40:18.469Z,102408.00
2022-09-07T09:42:49.046Z,102415.00
2022-09-07T09:45:20.676Z,102412.34
2022-09-07T09:47:50.843Z,102405.47
2022-09-07T09:53:24.459Z,102411.59
2022-09-07T09:55:53.185Z,102402.81
2022-09-07T10:01:24.857Z,102396.91
2022-09-07T10:06:28.106Z,102395.00
2022-09-07T10:08:58.099Z,102404.53
2022-09-07T10:14:32.509Z,102399.69
2022-09-07T10:17:02.024Z,102404.03
2022-09-07T10:19:34.853Z,102405.72
2022-09-07T10:22:04.975Z,102406.69
2022-09-07T10:24:37.197Z,102402.03
2022-09-07T10:27:20.033Z,102399.19
2022-09-07T10:29:47.680Z,102401.66
2022-09-07T10:32:23.811Z,102405.78
2022-09-07T10:34:57.119Z,102401.56
2022-09-07T10:37:33.926Z,102397.22
2022-09-07T10:40:06.472Z,102404.47
2022-09-07T10:42:35.635Z,102405.06
2022-09-07T10:45:06.917Z,102399.69
2022-09-07T10:47:45.926Z,102394.22
2022-09-07T10:50:22.869Z,102390.38
2022-09-07T10:52:56.527Z,102396.19
2022-09-07T10:55:28.902Z,102400.03
2022-09-07T10:58:02.539Z,102392.06
2022-09-07T11:00:33.684Z,102387.41
2022-09-07T11:03:30.096Z,102390.50
2022-09-07T11:06:04.091Z,102385.56
2022-09-07T11:14:18.483Z,102388.81
2022-09-07T11:16:54.714Z,102383.44
2022-09-07T11:19:36.955Z,102382.91
2022-09-07T11:22:08.427Z,102380.94
2022-09-07T11:24:40.364Z,102387.78
2022-09-07T11:27:11.053Z,102381.88
2022-09-07T11:29:42.091Z,102383.22
2022-09-07T11:32:13.255Z,102378.91
2022-09-07T11:34:45.214Z,102383.13
2022-09-07T11:37:17.051Z,102375.19
2022-09-07T11:39:47.904Z,102383.69
2022-09-07T11:45:10.262Z,102376.25
2022-09-07T11:47:40.145Z,102376.72
2022-09-07T11:50:15.571Z,102377.63
2022-09-07T11:52:44.708Z,102380.38
2022-09-07T11:55:16.322Z,102380.50
2022-09-07T11:57:49.670Z,102383.13
2022-09-07T12:00:20.854Z,102387.47
2022-09-07T12:03:09.556Z,102382.72
2022-09-07T12:06:00.226Z,102379.03
2022-09-07T12:08:35.863Z,102373.44
2022-09-07T12:11:24.277Z,102377.66
2022-09-07T12:14:09.515Z,102368.59
2022-09-07T12:16:43.986Z,102379.75
2022-09-07T12:19:17.955Z,102379.03
2022-09-07T12:21:47.854Z,102369.00
2022-09-07T12:24:45.939Z,102376.81
2022-09-07T12:27:31.758Z,102380.22
2022-09-07T12:30:18.695Z,102375.88
2022-09-07T12:33:05.873Z,102375.44
2022-09-07T12:35:38.857Z,102381.28
2022-09-07T12:38:29.923Z,102379.47
2022-09-07T12:41:03.341Z,102372.06
2022-09-07T12:43:47.928Z,102371.00
2022-09-07T12:46:19.793Z,102370.03
2022-09-07T12:48:54.825Z,102369.94
2022-09-07T12:54:18.196Z,102365.19
2022-09-07T12:57:29.208Z,102365.94
2022-09-07T12:59:46.737Z,102374.69
2022-09-07T13:02:27.920Z,102366.88
2022-09-07T13:05:04.778Z,102372.16
2022-09-07T13:07:43.819Z,102365.19
2022-09-07T13:10:32.343Z,102371.34
2022-09-07T13:13:04.569Z,102372.47
2022-09-07T13:15:38.823Z,102369.00
2022-09-07T13:18:06.788Z,102375.44
2022-09-07T13:20:39.854Z,102375.13
2022-09-07T13:23:30.154Z,102378.94
2022-09-07T13:26:00.068Z,102380.72
2022-09-07T13:28:34.369Z,102378.41
2022-09-07T13:31:18.534Z,102385.34
2022-09-07T13:33:48.173Z,102388.19
2022-09-07T13:36:32.065Z,102384.09
2022-09-07T13:38:59.929Z,102385.78
2022-09-07T13:41:29.565Z,102384.75
2022-09-07T13:44:00.467Z,102385.56
2022-09-07T13:46:45.370Z,102388.19
2022-09-07T13:49:19.376Z,102385.16
2022-09-07T13:51:51.756Z,102383.38
2022-09-07T13:54:27.134Z,102382.50
2022-09-07T13:56:59.347Z,102385.25
2022-09-07T13:59:28.612Z,102384.22
2022-09-07T14:01:57.146Z,102385.25
2022-09-07T14:04:30.401Z,102394.69
2022-09-07T14:07:13.491Z,102388.00
2022-09-07T14:09:41.378Z,102388.09
2022-09-07T14:12:14.755Z,102385.78
2022-09-07T14:14:42.373Z,102383.75
2022-09-07T14:17:13.692Z,102388.81
2022-09-07T14:19:42.654Z,102397.59
2022-09-07T14:22:14.299Z,102395.47
2022-09-07T14:24:43.023Z,102398.44
2022-09-07T14:27:21.183Z,102394.31
2022-09-07T14:29:48.856Z,102403.28
2022-09-07T14:32:18.743Z,102404.59
2022-09-07T14:34:46.999Z,102403.09
2022-09-07T14:37:17.612Z,102398.13
2022-09-07T14:39:46.986Z,102401.91
2022-09-07T14:42:16.389Z,102403.06
2022-09-07T14:44:44.985Z,102402.00
2022-09-07T14:47:22.667Z,102399.28
2022-09-07T14:49:52.170Z,102399.47
2022-09-07T14:52:21.402Z,102401.91
2022-09-07T14:54:53.116Z,102399.28
2022-09-07T14:57:32.018Z,102400.41
2022-09-07T15:00:18.837Z,102398.31
2022-09-07T15:02:46.542Z,102403.59
2022-09-07T15:05:19.050Z,102406.22
2022-09-07T15:07:47.593Z,102407.94
2022-09-07T15:10:26.723Z,102407.09
2022-09-07T15:12:55.608Z,102401.06
2022-09-07T15:15:26.314Z,102400.53
2022-09-07T15:17:54.851Z,102401.34
2022-09-07T15:20:32.950Z,102391.56
2022-09-07T15:23:01.107Z,102394.09
2022-09-07T15:25:32.743Z,102388.91
2022-09-07T15:28:01.353Z,102395.97
2022-09-07T15:30:29.075Z,102396.94
2022-09-07T15:32:57.465Z,102392.81
2022-09-07T15:35:25.353Z,102389.31
2022-09-07T15:38:02.741Z,102391.94
2022-09-07T15:40:37.802Z,102387.81
2022-09-07T15:43:19.530Z,102386.75
2022-09-07T15:45:48.119Z,102383.16
2022-09-07T15:48:16.376Z,102387.63
2022-09-07T15:50:43.955Z,102388.34
2022-09-07T15:56:03.232Z,102389.00
2022-09-07T15:58:31.168Z,102392.41
2022-09-07T16:03:51.754Z,102384.31
2022-09-07T16:06:21.752Z,102387.88
2022-09-07T16:08:51.423Z,102387.03
2022-09-07T16:11:23.960Z,102395.88
2022-09-07T16:13:55.864Z,102391.66
2022-09-07T16:17:26.647Z,102389.88
2022-09-07T16:19:13.852Z,102389.00
2022-09-07T16:21:41.699Z,102389.13
2022-09-07T16:24:09.914Z,102391.84
2022-09-07T16:26:38.914Z,102396.25
2022-09-07T16:29:06.511Z,102401.72
2022-09-07T16:31:34.425Z,102405.50
2022-09-07T16:34:02.698Z,102404.13
2022-09-07T16:36:30.652Z,102401.09
2022-09-07T16:39:00.895Z,102406.66
2022-09-07T16:41:31.397Z,102405.16
2022-09-07T16:44:00.405Z,102406.31
2022-09-07T16:46:30.585Z,102408.25
2022-09-07T16:48:58.293Z,102414.88
2022-09-07T16:51:26.149Z,102417.69
2022-09-07T16:53:54.715Z,102407.38
2022-09-07T16:56:23.341Z,102413.22
2022-09-07T16:58:52.110Z,102415.28
2022-09-07T17:01:22.517Z,102417.22
2022-09-07T17:03:50.739Z,102422.75
2022-09-07T17:06:19.579Z,102422.22
2022-09-07T17:08:47.513Z,102421.81
2022-09-07T17:11:16.163Z,102427.25
2022-09-07T17:13:44.577Z,102425.38
2022-09-07T17:16:13.150Z,102429.16
2022-09-07T17:21:31.256Z,102425.44
2022-09-07T17:24:00.580Z,102422.06
2022-09-07T17:26:28.230Z,102430.22
2022-09-07T17:28:59.792Z,102428.59
2022-09-07T17:34:18.766Z,102434.91
2022-09-07T17:36:46.396Z,102436.09
2022-09-07T17:39:16.449Z,102438.06
2022-09-07T17:41:44.827Z,102446.91
2022-09-07T17:44:12.546Z,102440.84
2022-09-07T17:46:40.165Z,102443.84
2022-09-07T17:49:08.847Z,102445.81
2022-09-07T17:51:38.012Z,102446.00
2022-09-07T17:54:11.501Z,102452.25
2022-09-07T17:56:40.370Z,102457.69
2022-09-07T18:01:55.997Z,102457.69
2022-09-07T18:04:25.080Z,102455.31
2022-09-07T18:06:54.282Z,102461.59
2022-09-07T18:09:22.054Z,102458.38
2022-09-07T18:11:50.477Z,102461.84
2022-09-07T18:14:19.176Z,102462.03
2022-09-07T18:16:47.902Z,102461.09
2022-09-07T18:19:18.194Z,102467.38
2022-09-07T18:21:47.902Z,102460.50
2022-09-07T18:24:18.825Z,102459.72
2022-09-07T18:26:51.284Z,102464.34
2022-09-07T18:29:31.355Z,102467.06
2022-09-07T18:32:00.953Z,102466.28
2022-09-07T18:34:30.872Z,102474.47
2022-09-07T18:36:59.206Z,102469.28
2022-09-07T18:39:28.756Z,102478.13
2022-09-07T18:41:56.534Z,102473.03
2022-09-07T18:47:21.061Z,102473.94
2022-09-07T18:49:50.867Z,102470.66
2022-09-07T18:55:08.698Z,102477.13
2022-09-07T18:57:36.693Z,102479.78
2022-09-07T19:00:04.986Z,102487.00
2022-09-07T19:02:33.509Z,102485.34
2022-09-07T19:07:48.931Z,102485.91
2022-09-07T19:10:18.117Z,102498.31
2022-09-07T19:12:46.391Z,102492.34
2022-09-07T19:15:14.263Z,102490.66
2022-09-07T19:17:41.987Z,102489.16
2022-09-07T19:20:10.327Z,102495.38
2022-09-07T19:22:38.138Z,102495.53
2022-09-07T19:25:06.202Z,102501.66
2022-09-07T19:27:35.203Z,102502.75
2022-09-07T19:30:02.824Z,102505.63
2022-09-07T19:32:30.761Z,102510.00
2022-09-07T19:34:58.467Z,102503.91
2022-09-07T19:37:27.324Z,102498.72
2022-09-07T19:39:56.050Z,102500.53
2022-09-07T19:42:24.304Z,102504.84
2022-09-07T19:44:54.144Z,102510.25
2022-09-07T19:47:22.062Z,102513.91
2022-09-07T19:49:49.675Z,102510.56
2022-09-07T19:52:17.275Z,102514.28
2022-09-07T19:54:45.688Z,102514.59
2022-09-07T19:57:13.395Z,102510.44
2022-09-07T19:59:41.032Z,102509.66
2022-09-07T20:02:10.783Z,102510.66
2022-09-07T20:04:38.382Z,102512.66
2022-09-07T20:07:06.635Z,102508.56
2022-09-07T20:09:34.630Z,102505.31
2022-09-07T20:12:03.824Z,102509.03
2022-09-07T20:14:31.466Z,102504.91
2022-09-07T20:16:59.204Z,102513.16
2022-09-07T20:19:28.188Z,102514.16
2022-09-07T20:21:56.122Z,102509.78
2022-09-07T20:24:23.890Z,102513.44
2022-09-07T20:26:51.534Z,102511.75
2022-09-07T20:29:28.167Z,102516.72
2022-09-07T20:31:56.168Z,102517.41
2022-09-07T20:34:23.898Z,102519.97
2022-09-07T20:36:53.189Z,102516.56
2022-09-07T20:39:21.091Z,102521.03
2022-09-07T20:41:48.811Z,102524.59
2022-09-07T20:44:16.649Z,102526.41
2022-09-07T20:46:44.336Z,102529.13
2022-09-07T20:49:12.071Z,102530.19
2022-09-07T20:51:39.814Z,102531.06
2022-09-07T20:54:08.942Z,102538.16
2022-09-07T20:56:36.621Z,102536.44
2022-09-07T20:59:04.663Z,102537.50
2022-09-07T21:01:33.213Z,102536.72
2022-09-07T21:04:01.765Z,102529.22
2022-09-07T21:06:29.896Z,102537.22
2022-09-07T21:08:58.047Z,102532.19
2022-09-07T21:11:27.867Z,102538.44
2022-09-07T21:13:55.986Z,102539.78
2022-09-07T21:16:23.943Z,102539.22
2022-09-07T21:18:53.598Z,102541.25
2022-09-07T21:21:21.516Z,102537.22
2022-09-07T21:23:49.313Z,102536.56
2022-09-07T21:26:21.216Z,102534.16
2022-09-07T21:28:54.723Z,102531.81
2022-09-07T21:31:22.472Z,102528.78
2022-09-07T21:33:53.846Z,102535.06
2022-09-07T21:36:21.500Z,102537.75
2022-09-07T21:38:50.039Z,102539.59
2022-09-07T21:41:18.363Z,102537.13
2022-09-07T21:43:46.226Z,102534.78
2022-09-07T21:46:16.001Z,102541.19
2022-09-07T21:48:43.695Z,102538.66
2022-09-07T21:51:11.481Z,102540.69
2022-09-07T21:53:39.207Z,102546.97
2022-09-07T21:56:08.666Z,102547.22
2022-09-07T21:58:36.410Z,102542.25
2022-09-07T22:01:10.652Z,102552.78
2022-09-07T22:03:40.422Z,102552.25
2022-09-07T22:06:08.425Z,102552.56
2022-09-07T22:08:36.769Z,102552.69
2022-09-07T22:11:05.483Z,102552.06
2022-09-07T22:13:33.220Z,102558.19
2022-09-07T22:16:00.957Z,102557.53
2022-09-07T22:18:29.959Z,102561.28
2022-09-07T22:21:06.407Z,102560.56
2022-09-07T22:23:34.524Z,102565.06
2022-09-07T22:26:02.242Z,102560.94
2022-09-07T22:28:30.422Z,102562.88
2022-09-07T22:30:58.360Z,102560.56
2022-09-07T22:33:26.050Z,102571.16
2022-09-07T22:35:53.634Z,102572.06
2022-09-07T22:38:22.591Z,102577.41
2022-09-07T22:40:50.210Z,102574.41
2022-09-07T22:43:17.855Z,102573.59
2022-09-07T22:45:45.470Z,102571.97
2022-09-07T22:48:13.048Z,102579.22
2022-09-07T22:50:40.635Z,102577.50
2022-09-07T22:53:08.224Z,102575.91
2022-09-07T22:55:40.450Z,102577.72
2022-09-07T22:58:08.050Z,102576.38
2022-09-07T23:00:36.531Z,102573.06
2022-09-07T23:03:05.026Z,102573.28
2022-09-07T23:05:37.022Z,102575.19
2022-09-07T23:08:04.699Z,102577.13
2022-09-07T23:10:34.630Z,102579.06
2022-09-07T23:13:03.911Z,102574.78
2022-09-07T23:15:31.519Z,102574.16
2022-09-07T23:17:59.242Z,102570.84
2022-09-07T23:20:26.830Z,102579.63
2022-09-07T23:22:54.457Z,102578.03
2022-09-07T23:25:22.668Z,102572.97
2022-09-07T23:27:50.241Z,102573.13
2022-09-07T23:30:19.283Z,102582.06
2022-09-07T23:32:46.900Z,102586.66
2022-09-07T23:35:16.634Z,102585.84
2022-09-07T23:37:44.421Z,102585.91
2022-09-07T23:40:12.390Z,102583.44
2022-09-07T23:42:40.028Z,102585.41
2022-09-07T23:45:08.192Z,102577.69
2022-09-07T23:47:37.184Z,102583.97
2022-09-07T23:50:05.066Z,102583.25
2022-09-07T23:52:33.079Z,102584.22
2022-09-07T23:55:00.680Z,102589.59
2022-09-07T23:57:28.323Z,102584.50
2022-09-07T23:59:55.902Z,102582.81
